Time;durP1;ratioP1;P1;durP2;ratioP2;P2;SDS_P1;SDS_P2;PMS_P1;PMS_P2;Temp;Humidity;BMP_temperature;BMP_pressure;BME280_temperature;BME280_humidity;BME280_pressure;Samples;Min_cycle;Max_cycle;Signal;HPM_P1;HPM_P2
2021/04/06 00:01:48;;;;;;;11.15;7.47;;;;;;;5.85;46.39;93008.27;1784841;80;21567;-58
2021/04/06 00:04:21;;;;;;;11.60;7.40;;;;;;;5.73;46.34;93012.50;1784779;80;21068;-57
2021/04/06 00:06:56;;;;;;;8.03;7.22;;;;;;;5.64;46.29;93013.27;1760017;80;21326;-56
2021/04/06 00:09:25;;;;;;;21.12;13.95;;;;;;;5.58;46.35;93027.37;1783515;80;21207;-58
2021/04/06 00:11:58;;;;;;;13.62;9.95;;;;;;;5.54;47.25;93021.92;1784461;79;21089;-57
2021/04/06 00:14:26;;;;;;;27.45;15.68;;;;;;;5.47;47.71;93010.75;1783633;80;21846;-57
2021/04/06 00:16:56;;;;;;;36.15;23.70;;;;;;;5.42;48.04;93016.05;1784259;80;21167;-57
2021/04/06 00:19:24;;;;;;;92.67;51.48;;;;;;;5.36;48.49;93013.77;1784706;80;22109;-55
2021/04/06 00:21:56;;;;;;;52.35;28.23;;;;;;;5.28;48.72;93013.93;1759890;80;21173;-56
2021/04/06 00:24:27;;;;;;;28.15;16.42;;;;;;;5.23;49.05;93019.99;1760092;80;21069;-56
2021/04/06 00:26:57;;;;;;;18.62;13.95;;;;;;;5.16;49.13;93017.55;1784425;80;21073;-58
2021/04/06 00:29:28;;;;;;;21.20;13.68;;;;;;;5.15;48.59;93021.49;1783787;80;21443;-56
2021/04/06 00:31:56;;;;;;;17.98;12.53;;;;;;;5.24;48.18;93016.05;1759670;80;21466;-56
2021/04/06 00:34:24;;;;;;;15.20;12.53;;;;;;;5.36;48.20;93016.48;1760263;80;21077;-56
2021/04/06 00:36:54;;;;;;;18.25;16.32;;;;;;;5.46;47.96;93005.73;1759710;80;21888;-56
2021/04/06 00:39:32;;;;;;;13.70;11.35;;;;;;;5.56;47.86;93005.86;1784090;80;21478;-57
2021/04/06 00:42:12;;;;;;;19.55;12.25;;;;;;;5.62;47.92;93006.16;1783513;79;21176;-56
2021/04/06 00:44:46;;;;;;;18.65;12.15;;;;;;;5.63;48.37;93002.21;1783909;80;21377;-56
2021/04/06 00:47:14;;;;;;;17.40;11.90;;;;;;;5.59;48.40;92994.06;1784054;80;21197;-57
2021/04/06 00:49:43;;;;;;;17.82;11.95;;;;;;;5.56;48.24;92993.59;1784327;80;21049;-56
2021/04/06 00:52:12;;;;;;;16.27;12.47;;;;;;;5.54;48.47;92981.79;1735754;80;21120;-56
2021/04/06 00:54:40;;;;;;;13.88;11.38;;;;;;;5.55;48.60;92987.98;1699288;82;21172;-58
2021/04/06 00:57:08;;;;;;;17.10;12.30;;;;;;;5.55;48.71;92986.63;1725517;82;21168;-55
2021/04/06 00:59:38;;;;;;;16.25;13.85;;;;;;;5.57;48.76;92992.41;1705332;82;21195;-57
2021/04/06 01:02:08;;;;;;;15.30;11.80;;;;;;;5.55;48.98;92992.08;1750404;81;21101;-56
2021/04/06 01:04:38;;;;;;;16.65;13.10;;;;;;;5.55;48.93;92981.16;1725082;82;21081;-57
2021/04/06 01:07:14;;;;;;;19.42;12.63;;;;;;;5.57;48.99;92985.58;1749796;81;21176;-56
2021/04/06 01:09:48;;;;;;;16.40;12.25;;;;;;;5.59;49.06;92970.88;1750197;81;21379;-56
2021/04/06 01:12:18;;;;;;;15.88;11.08;;;;;;;5.65;48.99;92967.08;1750080;81;21387;-56
2021/04/06 01:14:47;;;;;;;15.13;12.37;;;;;;;5.70;49.00;92957.50;1749920;82;21193;-57
2021/04/06 01:17:18;;;;;;;16.60;13.28;;;;;;;5.74;49.23;92951.27;1725187;82;21712;-56
2021/04/06 01:19:46;;;;;;;17.42;12.37;;;;;;;5.75;48.85;92935.81;1750433;82;21089;-56
2021/04/06 01:22:17;;;;;;;15.05;12.50;;;;;;;5.80;48.89;92948.11;1749947;81;21434;-56
2021/04/06 01:24:46;;;;;;;14.68;12.25;;;;;;;5.86;48.89;92942.17;1749679;82;21521;-56
2021/04/06 01:27:17;;;;;;;17.57;12.70;;;;;;;5.91;49.14;92940.17;1749929;82;21072;-56
2021/04/06 01:29:53;;;;;;;16.73;11.90;;;;;;;5.91;49.41;92942.31;1741627;82;21199;-56
2021/04/06 01:32:27;;;;;;;13.70;12.20;;;;;;;5.88;49.48;92952.02;1750200;81;21588;-56
2021/04/06 01:34:56;;;;;;;15.90;13.13;;;;;;;5.86;49.48;92952.49;1750304;82;21073;-56
2021/04/06 01:37:25;;;;;;;17.35;12.53;;;;;;;5.89;49.49;92937.16;1749981;82;21088;-56
2021/04/06 01:39:56;;;;;;;16.40;12.75;;;;;;;5.90;49.45;92951.71;1749958;81;21207;-57
2021/04/06 01:42:30;;;;;;;29.42;13.70;;;;;;;5.93;49.57;92956.24;1749477;80;21188;-56
2021/04/06 01:44:56;;;;;;;18.67;13.28;;;;;;;5.97;49.38;92954.10;1749753;81;21089;-57
2021/04/06 01:47:26;;;;;;;18.25;12.43;;;;;;;5.97;49.11;92947.90;1750290;82;22203;-56
2021/04/06 01:49:56;;;;;;;19.52;13.83;;;;;;;6.00;49.36;92945.61;1750012;82;21863;-56
2021/04/06 01:52:27;;;;;;;34.15;19.37;;;;;;;6.03;49.17;92934.53;1749958;82;21164;-59
2021/04/06 01:55:03;;;;;;;24.70;15.60;;;;;;;6.11;48.90;92939.80;1760925;80;21142;-56
2021/04/06 02:00:27;;;;;;;17.60;13.25;;;;;;;6.32;48.92;92929.22;1887182;76;22745;-57
2021/04/06 02:02:45;;;;;;;17.73;13.03;;;;;;;6.30;48.74;92932.28;1846020;77;21583;-58
2021/04/06 02:05:15;;;;;;;15.25;12.53;;;;;;;6.30;48.59;92941.84;1848301;77;21518;-55
2021/04/06 02:07:45;;;;;;;14.15;10.98;;;;;;;6.32;48.71;92947.59;1818193;77;21143;-57
2021/04/06 02:10:14;;;;;;;15.78;11.15;;;;;;;6.31;48.79;92951.54;1848889;77;21028;-57
2021/04/06 02:12:44;;;;;;;15.78;11.95;;;;;;;6.27;48.84;92948.20;1836798;77;21435;-57
2021/04/06 02:15:13;;;;;;;17.40;12.82;;;;;;;6.26;48.89;92953.52;1814472;79;21061;-55
2021/04/06 02:17:52;;;;;;;19.70;14.73;;;;;;;6.29;49.10;92954.72;1815118;79;21354;-55
2021/04/06 02:20:26;;;;;;;27.13;17.65;;;;;;;6.36;49.40;92953.63;1815271;79;21154;-56
2021/04/06 02:23:01;;;;;;;21.15;15.88;;;;;;;6.35;49.58;92954.84;1814856;79;21120;-56
2021/04/06 02:25:31;;;;;;;18.00;14.63;;;;;;;6.39;49.60;92952.70;1815187;78;21136;-55
2021/04/06 02:27:59;;;;;;;16.75;13.78;;;;;;;6.41;49.32;92950.25;1814789;78;21147;-56
2021/04/06 02:30:30;;;;;;;22.07;15.05;;;;;;;6.41;49.36;92944.79;1814945;78;21430;-60
2021/04/06 02:33:02;;;;;;;24.92;15.60;;;;;;;6.35;49.69;92952.12;1815353;79;21143;-61
2021/04/06 02:35:31;;;;;;;37.93;19.73;;;;;;;6.37;49.71;92951.04;1824180;77;21158;-58
2021/04/06 02:37:59;;;;;;;45.08;23.90;;;;;;;6.39;50.08;92947.23;1848171;77;21773;-58
2021/04/06 02:40:27;;;;;;;31.15;20.10;;;;;;;6.33;50.46;92943.64;1848617;77;21167;-57
2021/04/06 02:42:57;;;;;;;46.65;23.00;;;;;;;6.30;50.45;92940.47;1838683;77;21363;-57
2021/04/06 02:45:29;;;;;;;39.08;22.65;;;;;;;6.24;51.29;92938.20;1820208;77;21131;-68
2021/04/06 02:48:12;;;;;;;30.97;19.27;;;;;;;6.15;51.17;92934.17;1821266;78;21377;-61
2021/04/06 02:50:42;;;;;;;31.95;18.02;;;;;;;6.17;51.28;92930.37;1820713;78;21114;-60
2021/04/06 02:53:12;;;;;;;29.85;19.20;;;;;;;6.19;51.43;92932.02;1820714;78;21941;-59
2021/04/06 02:55:41;;;;;;;40.35;23.38;;;;;;;6.21;51.20;92932.31;1820048;78;21619;-60
2021/04/06 02:58:14;;;;;;;40.73;22.93;;;;;;;6.27;50.83;92921.66;1820379;77;21207;-59
2021/04/06 03:00:43;;;;;;;34.35;20.50;;;;;;;6.30;50.67;92920.00;1810446;79;21056;-59
2021/04/06 03:03:25;;;;;;;35.58;20.82;;;;;;;6.30;50.65;92913.91;1810241;79;21045;-59
2021/04/06 03:06:05;;;;;;;26.45;19.45;;;;;;;6.30;50.68;92912.55;1797224;79;21056;-58
2021/04/06 03:08:36;;;;;;;22.07;15.23;;;;;;;6.28;50.64;92927.27;1807771;78;21356;-59
2021/04/06 03:11:07;;;;;;;33.95;24.43;;;;;;;6.23;50.94;92917.59;1810006;79;21083;-59
2021/04/06 03:13:42;;;;;;;27.27;20.90;;;;;;;6.14;50.95;92926.58;1808317;78;21072;-60
2021/04/06 03:16:11;;;;;;;30.48;21.17;;;;;;;6.08;51.23;92924.34;1809872;79;21532;-59
2021/04/06 03:18:41;;;;;;;28.25;18.87;;;;;;;6.04;51.42;92927.09;1809624;79;21870;-57
2021/04/06 03:21:11;;;;;;;26.33;17.62;;;;;;;5.93;51.69;92922.13;1823344;78;21382;-56
2021/04/06 03:23:39;;;;;;;36.77;17.30;;;;;;;5.84;52.04;92927.64;1809459;79;21099;-61
2021/04/06 03:26:09;;;;;;;26.15;18.65;;;;;;;5.78;52.28;92928.70;1809339;79;21754;-57
2021/04/06 03:28:39;;;;;;;26.85;17.02;;;;;;;5.74;52.33;92928.08;1809888;79;21172;-57
2021/04/06 03:31:15;;;;;;;23.57;16.25;;;;;;;5.77;52.39;92934.00;1809594;78;21142;-58
2021/04/06 03:33:45;;;;;;;26.23;14.98;;;;;;;5.82;52.71;92933.41;1809348;79;21422;-57
2021/04/06 03:36:30;;;;;;;21.80;15.90;;;;;;;5.85;52.98;92934.61;1809692;79;21056;-56
2021/04/06 03:39:04;;;;;;;27.25;18.45;;;;;;;5.82;53.18;92927.32;1821904;78;21139;-57
2021/04/06 03:41:33;;;;;;;26.00;16.75;;;;;;;5.84;53.07;92929.59;1809567;78;21155;-56
2021/04/06 03:44:11;;;;;;;24.77;17.82;;;;;;;5.86;53.10;92930.66;1809886;77;21072;-58
2021/04/06 03:46:41;;;;;;;24.92;18.10;;;;;;;5.91;53.34;92926.53;1809556;79;21423;-57
2021/04/06 03:49:26;;;;;;;29.32;20.92;;;;;;;5.92;53.37;92930.17;1822817;78;21088;-59
2021/04/06 03:52:08;;;;;;;27.15;18.35;;;;;;;5.89;53.59;92927.01;1809772;79;21033;-56
2021/04/06 03:54:47;;;;;;;26.23;19.73;;;;;;;5.86;54.01;92928.53;1809894;79;21036;-57
2021/04/06 03:57:36;;;;;;;33.50;22.37;;;;;;;5.87;54.18;92925.35;1809474;79;21136;-57
2021/04/06 04:00:09;;;;;;;30.68;21.02;;;;;;;5.90;54.15;92927.75;1816445;78;22265;-57
2021/04/06 04:02:40;;;;;;;21.48;15.53;;;;;;;5.84;54.44;92930.97;1820199;78;21516;-58
2021/04/06 04:05:12;;;;;;;25.90;20.48;;;;;;;5.82;54.24;92937.49;1819986;78;21079;-57
2021/04/06 04:07:42;;;;;;;26.25;21.57;;;;;;;5.78;54.11;92939.61;1800607;78;21222;-58
2021/04/06 04:10:11;;;;;;;24.85;16.67;;;;;;;5.72;54.52;92944.16;1828697;77;21178;-58
2021/04/06 04:12:41;;;;;;;34.20;19.62;;;;;;;5.73;54.82;92952.48;1820003;78;21363;-58
2021/04/06 04:15:19;;;;;;;30.95;20.80;;;;;;;5.71;55.41;92952.19;1810348;78;21171;-60
2021/04/06 04:18:02;;;;;;;31.42;20.32;;;;;;;5.68;55.57;92951.16;1836482;77;21080;-60
2021/04/06 04:20:35;;;;;;;26.42;16.77;;;;;;;5.68;55.74;92953.11;1809577;78;21573;-59
2021/04/06 04:23:05;;;;;;;28.35;16.07;;;;;;;5.73;55.56;92949.75;1836968;78;21107;-58
2021/04/06 04:25:37;;;;;;;27.58;15.50;;;;;;;5.80;55.31;92952.20;1836809;78;21255;-58
2021/04/06 04:28:05;;;;;;;46.02;17.20;;;;;;;5.86;55.24;92949.77;1836712;78;21859;-59
2021/04/06 04:30:47;;;;;;;32.85;16.70;;;;;;;5.91;55.36;92952.45;1836582;78;21032;-57
2021/04/06 04:33:12;;;;;;;22.70;13.50;;;;;;;5.94;55.43;92955.65;1836803;78;21119;-59
2021/04/06 04:35:40;;;;;;;33.53;18.65;;;;;;;5.97;55.39;92960.18;1836569;78;21438;-59
2021/04/06 04:38:08;;;;;;;22.27;14.03;;;;;;;6.00;55.30;92961.36;1837156;78;21563;-61
2021/04/06 04:40:40;;;;;;;24.80;14.78;;;;;;;6.05;55.30;92959.98;1836815;78;21060;-58
2021/04/06 04:43:10;;;;;;;31.05;20.43;;;;;;;6.08;55.46;92967.24;1836995;78;21439;-60
2021/04/06 04:45:39;;;;;;;44.48;23.32;;;;;;;6.13;55.54;92968.00;1846264;77;21163;-58
2021/04/06 04:48:08;;;;;;;32.95;20.70;;;;;;;6.14;55.60;92966.78;1847192;77;21182;-58
2021/04/06 04:50:36;;;;;;;36.15;19.07;;;;;;;6.17;55.88;92968.59;1847613;77;21326;-60
2021/04/06 04:53:04;;;;;;;34.92;18.10;;;;;;;6.15;56.13;92968.30;1848026;77;21488;-60
2021/04/06 04:55:33;;;;;;;48.65;25.10;;;;;;;6.15;56.25;92964.20;1847342;77;20995;-60
2021/04/06 04:58:01;;;;;;;142.68;48.78;;;;;;;6.22;55.95;92979.64;1847762;77;21154;-60
2021/04/06 05:00:30;;;;;;;78.35;40.25;;;;;;;6.23;56.22;92981.75;1850244;77;21068;-59
2021/04/06 05:02:58;;;;;;;128.95;32.73;;;;;;;6.20;56.43;92981.30;1850637;77;21176;-60
2021/04/06 05:05:27;;;;;;;51.13;24.32;;;;;;;6.16;56.49;92983.45;1851456;77;21495;-59
2021/04/06 05:07:55;;;;;;;37.73;20.72;;;;;;;6.14;56.46;92990.73;1850774;77;21056;-59
2021/04/06 05:10:24;;;;;;;60.83;34.60;;;;;;;6.16;56.50;92988.91;1850576;77;21136;-60
2021/04/06 05:12:52;;;;;;;72.85;37.90;;;;;;;6.15;56.23;92991.50;1851198;77;21127;-57
2021/04/06 05:15:20;;;;;;;81.67;40.85;;;;;;;6.19;55.94;92992.08;1825599;77;21198;-58
2021/04/06 05:17:48;;;;;;;85.72;40.08;;;;;;;6.21;55.58;93001.33;1820240;78;21123;-60
2021/04/06 05:20:16;;;;;;;103.70;55.58;;;;;;;6.31;55.35;93008.88;1820525;78;21031;-59
2021/04/06 05:22:44;;;;;;;74.32;41.65;;;;;;;6.42;55.54;93006.38;1820020;78;21055;-60
2021/04/06 05:25:12;;;;;;;49.08;31.57;;;;;;;6.40;55.49;93008.82;1820301;78;21186;-60
2021/04/06 05:27:40;;;;;;;60.45;30.77;;;;;;;6.29;55.51;93012.66;1819944;78;21193;-59
2021/04/06 05:30:09;;;;;;;51.00;27.87;;;;;;;6.15;55.88;93011.97;1825832;77;21166;-58
2021/04/06 05:32:38;;;;;;;66.62;31.90;;;;;;;6.09;56.25;93020.02;1818449;77;21143;-60
2021/04/06 05:35:08;;;;;;;71.12;36.83;;;;;;;6.11;56.29;93014.08;1825351;77;21146;-60
2021/04/06 05:37:39;;;;;;;84.32;42.23;;;;;;;6.22;56.20;93013.77;1846419;77;21166;-60
2021/04/06 05:40:09;;;;;;;74.42;37.13;;;;;;;6.40;56.32;93019.74;1834181;78;21352;-59
2021/04/06 05:42:37;;;;;;;68.67;33.78;;;;;;;6.52;56.20;93022.89;1838601;77;21228;-60
2021/04/06 05:45:17;;;;;;;65.52;33.60;;;;;;;6.58;55.71;93022.39;1847545;77;21162;-60
2021/04/06 05:48:16;;;;;;;59.18;32.15;;;;;;;6.66;55.24;93029.05;1828186;77;21110;-63
2021/04/06 05:50:49;;;;;;;51.13;31.25;;;;;;;6.73;55.00;93028.06;1847234;77;21362;-59
2021/04/06 06:00:34;;;;;;;116.08;53.17;;;;;;;6.91;54.62;93036.78;1834195;77;21201;-60
2021/04/06 06:03:10;;;;;;;78.52;44.38;;;;;;;7.08;54.12;93044.88;1838996;77;21911;-59
2021/04/06 06:05:42;;;;;;;114.55;42.65;;;;;;;7.08;54.14;93047.61;1838339;77;21442;-60
2021/04/06 06:08:17;;;;;;;58.17;36.42;;;;;;;7.07;53.99;93049.42;1838367;76;21285;-59
2021/04/06 06:10:45;;;;;;;75.80;43.30;;;;;;;7.09;53.76;93046.38;1838710;77;21734;-60
2021/04/06 06:13:24;;;;;;;75.65;40.88;;;;;;;7.13;53.94;93055.16;1838444;77;21689;-62
2021/04/06 06:16:12;;;;;;;67.90;42.00;;;;;;;7.16;54.06;93056.22;1839713;77;21154;-64
2021/04/06 06:19:05;;;;;;;67.17;38.50;;;;;;;7.20;53.91;93057.56;1837853;77;21134;-60
2021/04/06 06:21:49;;;;;;;116.50;54.90;;;;;;;7.38;53.60;93060.14;1838784;77;21831;-59
2021/04/06 06:24:30;;;;;;;92.57;45.33;;;;;;;7.53;53.70;93055.47;1838705;77;21802;-59
2021/04/06 06:26:59;;;;;;;63.40;36.20;;;;;;;7.57;53.74;93051.96;1838781;77;21170;-60
2021/04/06 06:29:30;;;;;;;61.18;32.53;;;;;;;7.58;53.38;93063.05;1835293;77;21351;-61
2021/04/06 06:32:01;;;;;;;58.70;34.53;;;;;;;7.60;53.42;93065.30;1838605;77;21168;-58
2021/04/06 06:34:36;;;;;;;53.80;30.37;;;;;;;7.62;53.26;93053.27;1838267;77;22939;-61
2021/04/06 06:37:27;;;;;;;53.85;31.62;;;;;;;7.67;53.20;93050.64;1809007;77;21528;-59
2021/04/06 06:40:06;;;;;;;53.15;31.77;;;;;;;7.77;53.40;93053.45;1765029;80;21503;-58
2021/04/06 06:42:37;;;;;;;57.08;37.80;;;;;;;7.87;52.92;93056.23;1737479;82;21310;-57
2021/04/06 06:45:23;;;;;;;57.03;37.48;;;;;;;7.90;53.28;93050.45;1706518;82;21319;-60
2021/04/06 06:47:56;;;;;;;67.27;35.50;;;;;;;7.98;52.88;93056.45;1779230;79;22250;-61
2021/04/06 06:50:27;;;;;;;;;;;;;;;8.15;52.24;93058.87;1808726;79;21409;-59
2021/04/06 06:52:56;;;;;;;59.33;35.15;;;;;;;8.32;51.71;93059.17;1805645;79;20260;-59
2021/04/06 06:55:27;;;;;;;58.13;31.33;;;;;;;8.41;51.73;93065.30;1775067;79;21758;-59
2021/04/06 06:58:05;;;;;;;83.97;42.23;;;;;;;8.52;50.83;93064.13;1805566;79;21200;-60
2021/04/06 07:00:34;;;;;;;61.95;34.73;;;;;;;8.55;50.78;93063.17;1764721;81;21860;-60
2021/04/06 07:03:15;;;;;;;53.48;33.05;;;;;;;8.57;50.53;93058.57;1805438;79;21828;-60
2021/04/06 07:09:28;;;;;;;54.33;31.20;;;;;;;8.57;50.46;93057.20;1805782;79;21315;-59
2021/04/06 07:12:00;;;;;;;54.55;33.05;;;;;;;8.48;50.98;93058.09;1749899;79;21400;-58
2021/04/06 07:14:30;;;;;;;56.02;32.05;;;;;;;8.43;50.53;93055.25;1774008;79;21659;-60
2021/04/06 07:17:02;;;;;;;51.45;31.52;;;;;;;8.44;50.24;93053.39;1774594;79;21199;-63
2021/04/06 07:19:43;;;;;;;63.48;33.90;;;;;;;8.55;50.18;93050.84;1774896;79;21146;-60
2021/04/06 07:22:14;;;;;;;57.95;33.00;;;;;;;8.68;50.39;93055.41;1765275;81;21512;-60
2021/04/06 07:24:42;;;;;;;55.08;32.90;;;;;;;8.82;50.09;93053.23;1804157;79;21723;-60
2021/04/06 07:27:13;;;;;;;53.80;31.42;;;;;;;8.91;49.69;93050.39;1805366;79;21174;-59
2021/04/06 07:29:42;;;;;;;66.17;36.30;;;;;;;9.04;49.44;93039.86;1764376;81;21176;-57
2021/04/06 07:32:13;;;;;;;101.82;51.68;;;;;;;9.18;49.19;93048.63;1804294;79;21171;-62
2021/04/06 07:34:43;;;;;;;102.42;49.60;;;;;;;9.22;49.21;93056.06;1806279;77;21415;-58
2021/04/06 07:37:13;;;;;;;79.27;40.43;;;;;;;9.23;49.01;93049.34;1805611;78;21393;-59
2021/04/06 07:39:41;;;;;;;59.38;38.33;;;;;;;9.25;49.32;93052.35;1806011;77;21295;-59
2021/04/06 07:42:11;;;;;;;59.67;33.33;;;;;;;9.22;49.64;93045.83;1764784;81;21869;-61
2021/04/06 07:44:39;;;;;;;51.00;26.77;;;;;;;9.17;49.70;93045.75;1805624;79;21742;-59
2021/04/06 07:50:48;;;;;;;25.77;18.07;;;;;;;9.10;50.03;93044.79;1805587;79;21151;-60
2021/04/06 07:53:29;;;;;;;27.82;17.82;;;;;;;8.88;50.72;93047.97;1805909;79;21691;-61
2021/04/06 07:55:59;;;;;;;27.95;17.95;;;;;;;8.75;51.22;93052.27;1806402;79;21408;-59
2021/04/06 08:02:07;;;;;;;23.55;15.40;;;;;;;8.59;51.58;93054.77;1785995;79;21855;-60
2021/04/06 08:04:53;;;;;;;31.90;14.93;;;;;;;8.24;52.51;93051.94;1757900;81;21245;-61
2021/04/06 08:07:28;;;;;;;20.92;14.25;;;;;;;8.02;53.60;93062.49;1757560;81;21429;-59
2021/04/06 08:10:11;;;;;;;23.10;12.78;;;;;;;7.88;53.94;93046.80;1739022;81;21147;-60
2021/04/06 08:12:40;;;;;;;21.45;13.90;;;;;;;7.78;54.43;93039.91;1758386;81;21441;-61
2021/04/06 08:15:22;;;;;;;18.67;13.45;;;;;;;7.70;54.69;93037.39;1737862;81;21418;-61
2021/04/06 08:17:56;;;;;;;18.05;12.65;;;;;;;7.63;55.10;93051.45;1757311;80;21183;-60
2021/04/06 08:20:33;;;;;;;25.80;17.92;;;;;;;7.49;55.17;93039.11;1756992;79;22497;-61
2021/04/06 08:23:11;;;;;;;20.37;14.63;;;;;;;7.41;55.83;93044.19;1756682;80;21194;-59
2021/04/06 08:25:44;;;;;;;16.15;12.53;;;;;;;7.48;55.82;93043.81;1737561;81;21960;-64
2021/04/06 08:28:33;;;;;;;16.15;10.32;;;;;;;7.48;55.55;93042.45;1756977;81;21319;-57
2021/04/06 08:31:20;;;;;;;15.10;11.03;;;;;;;7.35;55.83;93039.20;1756719;81;21406;-60
2021/04/06 08:33:49;;;;;;;16.85;13.22;;;;;;;7.22;56.30;93048.28;1750022;79;22720;-63
2021/04/06 08:36:27;;;;;;;12.85;10.82;;;;;;;7.15;56.37;93047.25;1756541;81;21180;-66
2021/04/06 08:38:56;;;;;;;24.45;13.65;;;;;;;7.05;56.47;93041.56;1756612;79;21152;-66
2021/04/06 08:41:32;;;;;;;15.72;12.90;;;;;;;6.95;57.13;93044.20;1756506;79;21496;-66
2021/04/06 08:44:06;;;;;;;20.43;14.65;;;;;;;6.97;57.25;93036.28;1755743;81;21084;-69
2021/04/06 08:49:36;;;;;;;13.88;11.28;;;;;;;7.21;57.25;93022.75;1836456;77;22905;-74
2021/04/06 08:52:20;;;;;;;15.63;12.70;;;;;;;7.22;56.33;93024.27;1768242;79;21194;-68
2021/04/06 08:54:52;;;;;;;20.70;14.28;;;;;;;7.28;56.76;93021.79;1745714;82;21419;-65
2021/04/06 08:57:21;;;;;;;18.37;13.18;;;;;;;7.40;56.93;93021.39;1776929;80;21183;-67
2021/04/06 08:59:49;;;;;;;16.77;14.15;;;;;;;7.54;57.04;93016.56;1746164;82;21330;-67
2021/04/06 09:02:18;;;;;;;17.10;13.03;;;;;;;7.66;56.74;93016.30;1744514;81;21889;-70
2021/04/06 09:04:51;;;;;;;23.83;13.40;;;;;;;7.75;55.79;93010.75;1746134;82;21473;-64
2021/04/06 09:07:23;;;;;;;24.52;12.85;;;;;;;7.72;55.58;93011.67;1746062;81;21277;-61
2021/04/06 09:10:09;;;;;;;22.35;12.03;;;;;;;7.64;55.41;93022.09;1776941;80;21202;-58
2021/04/06 09:12:50;;;;;;;12.70;11.38;;;;;;;7.56;55.66;93021.70;1746899;82;21192;-61
2021/04/06 09:15:23;;;;;;;11.97;10.18;;;;;;;7.48;55.43;93023.30;1775147;80;21367;-65
2021/04/06 09:17:52;;;;;;;17.20;11.43;;;;;;;7.45;55.71;93031.08;1745733;82;21909;-62
2021/04/06 09:20:22;;;;;;;16.57;11.12;;;;;;;7.43;55.72;93026.69;1776226;80;21205;-61
2021/04/06 09:22:50;;;;;;;12.75;10.55;;;;;;;7.45;55.74;93035.78;1714387;82;21918;-61
2021/04/06 09:25:22;;;;;;;14.45;10.72;;;;;;;7.42;55.34;93037.48;1776881;80;22110;-61
2021/04/06 09:27:58;;;;;;;15.18;9.95;;;;;;;7.41;55.65;93039.31;1746023;82;21192;-63
2021/04/06 09:30:36;;;;;;;16.12;11.33;;;;;;;7.47;55.51;93043.67;1776835;80;21799;-62
2021/04/06 09:33:13;;;;;;;11.68;9.50;;;;;;;7.52;55.22;93044.38;1746054;82;21674;-61
2021/04/06 09:35:50;;;;;;;16.10;9.53;;;;;;;7.53;54.30;93050.00;1764037;80;21215;-62
2021/04/06 09:38:21;;;;;;;17.23;11.00;;;;;;;7.48;53.55;93041.08;1735104;82;21391;-61
2021/04/06 09:40:50;;;;;;;13.95;9.98;;;;;;;7.59;54.24;93041.30;1735368;81;21441;-60
2021/04/06 09:43:18;;;;;;;15.65;8.88;;;;;;;7.77;54.27;93039.77;1735535;82;21798;-60
2021/04/06 09:45:50;;;;;;;14.20;8.43;;;;;;;7.89;53.96;93041.47;1735639;82;22541;-62
2021/04/06 09:48:20;;;;;;;13.08;9.68;;;;;;;7.89;53.86;93052.42;1730897;82;21175;-61
2021/04/06 09:51:00;;;;;;;14.10;9.63;;;;;;;7.96;53.31;93049.33;1725300;83;21184;-60
2021/04/06 09:53:29;;;;;;;10.55;8.35;;;;;;;8.04;53.23;93046.97;1702979;83;21851;-61
2021/04/06 09:55:57;;;;;;;9.60;8.20;;;;;;;8.10;52.65;93034.86;1725171;81;21876;-61
2021/04/06 10:02:04;;;;;;;11.15;7.83;;;;;;;8.20;52.41;93045.91;1724431;83;21451;-59
2021/04/06 10:04:39;;;;;;;10.70;7.47;;;;;;;8.28;52.04;93050.39;1724520;83;21376;-61
2021/04/06 10:07:21;;;;;;;6.97;6.12;;;;;;;8.33;51.59;93046.38;1724401;82;21172;-62
2021/04/06 10:10:03;;;;;;;16.00;10.58;;;;;;;8.41;50.94;93042.02;1724644;83;22073;-62
2021/04/06 10:12:32;;;;;;;10.88;8.43;;;;;;;8.55;50.83;93030.89;1724480;83;22239;-59
2021/04/06 10:15:01;;;;;;;13.25;9.38;;;;;;;8.56;51.21;93040.62;1724483;82;21167;-61
2021/04/06 10:17:40;;;;;;;18.10;8.28;;;;;;;8.60;51.56;93024.75;1724718;83;21176;-61
2021/04/06 10:20:18;;;;;;;11.70;8.38;;;;;;;8.57;50.83;93029.19;1724450;82;21413;-60
2021/04/06 10:22:55;;;;;;;11.78;8.43;;;;;;;8.44;50.91;93030.73;1724442;82;21946;-60
2021/04/06 10:25:30;;;;;;;11.48;8.10;;;;;;;8.37;51.32;93026.98;1724549;83;21372;-62
2021/04/06 10:28:04;;;;;;;11.60;9.05;;;;;;;8.46;51.15;93029.01;1724297;82;21458;-59
2021/04/06 10:30:52;;;;;;;23.60;14.60;;;;;;;8.50;50.74;93020.00;1724314;81;21211;-60
2021/04/06 10:33:23;;;;;;;12.60;8.60;;;;;;;8.43;50.68;93010.78;1724390;83;21180;-59
2021/04/06 10:35:56;;;;;;;13.50;7.62;;;;;;;8.33;50.78;92999.81;1724445;82;21148;-61
2021/04/06 10:38:27;;;;;;;;;;;;;;;8.19;51.01;92996.47;1726997;83;21517;-60
2021/04/06 10:44:18;;;;;;;15.55;9.73;;;;;;;7.66;51.95;92993.04;1723780;83;21191;-64
2021/04/06 10:46:46;;;;;;;12.35;9.30;;;;;;;7.30;52.73;92989.88;1701633;83;21340;-61
2021/04/06 10:49:15;;;;;;;12.03;9.98;;;;;;;7.05;53.23;92999.19;1723047;81;21493;-62
2021/04/06 10:51:51;;;;;;;13.55;8.75;;;;;;;6.78;53.48;93001.49;1699818;83;21257;-60
2021/04/06 10:54:20;;;;;;;11.73;9.58;;;;;;;6.56;54.34;92997.52;1683648;85;21191;-60
2021/04/06 10:56:51;;;;;;;12.75;9.23;;;;;;;6.42;54.57;93005.78;1694441;82;21428;-62
2021/04/06 10:59:33;;;;;;;10.45;7.85;;;;;;;6.24;55.17;93018.75;1714625;83;21239;-60
2021/04/06 11:02:01;;;;;;;10.32;8.65;;;;;;;6.03;56.09;93014.27;1713022;83;21180;-61
2021/04/06 11:04:37;;;;;;;11.08;8.08;;;;;;;5.83;56.79;93023.58;1712957;83;22393;-61
2021/04/06 11:07:09;;;;;;;10.32;9.10;;;;;;;5.72;57.22;93027.35;1713288;83;21126;-63
2021/04/06 11:09:46;;;;;;;8.45;7.10;;;;;;;5.64;57.42;93037.81;1654517;84;21199;-59
2021/04/06 11:12:16;;;;;;;13.28;7.40;;;;;;;5.55;56.56;93034.34;1725203;83;21183;-62
2021/04/06 11:18:24;;;;;;;8.75;6.92;;;;;;;5.23;56.74;93044.53;1725235;83;21210;-64
2021/04/06 11:20:51;;;;;;;10.85;8.40;;;;;;;5.12;57.15;93047.55;1693905;83;21266;-60
2021/04/06 11:23:20;;;;;;;7.95;7.15;;;;;;;5.07;57.60;93046.18;1725350;83;21174;-61
2021/04/06 11:25:48;;;;;;;6.78;6.08;;;;;;;5.09;57.80;93046.48;1725022;83;21411;-67
2021/04/06 11:28:16;;;;;;;8.65;6.45;;;;;;;4.96;57.15;93049.94;1725028;83;21126;-59
2021/04/06 11:30:44;;;;;;;10.25;7.58;;;;;;;4.86;58.31;93056.59;1725430;83;21460;-61
2021/04/06 11:33:12;;;;;;;7.92;6.78;;;;;;;4.84;58.62;93052.21;1725622;83;21837;-61
2021/04/06 11:35:41;;;;;;;10.90;8.60;;;;;;;4.82;58.58;93039.63;1725534;82;21158;-60
2021/04/06 11:38:11;;;;;;;12.20;8.43;;;;;;;4.74;58.81;93041.13;1725774;83;21182;-61
2021/04/06 11:40:40;;;;;;;17.07;11.28;;;;;;;4.69;59.21;93052.63;1725137;82;21214;-62
2021/04/06 11:43:10;;;;;;;10.48;8.70;;;;;;;4.57;59.81;93048.05;1725343;83;21213;-60
2021/04/06 11:45:39;;;;;;;15.45;9.25;;;;;;;4.49;60.28;93048.19;1725409;83;21201;-61
2021/04/06 11:48:07;;;;;;;8.68;7.40;;;;;;;4.50;60.97;93051.06;1725750;81;21445;-59
2021/04/06 11:50:35;;;;;;;11.93;7.97;;;;;;;4.55;61.26;93057.27;1749646;81;21776;-61
2021/04/06 11:53:03;;;;;;;10.43;8.30;;;;;;;4.53;61.81;93056.97;1750439;81;21924;-60
2021/04/06 11:55:33;;;;;;;9.38;7.72;;;;;;;4.39;62.45;93050.72;1750491;81;21389;-60
2021/04/06 11:58:03;;;;;;;11.78;6.85;;;;;;;4.30;63.59;93049.34;1750179;81;21128;-60
2021/04/06 12:00:32;;;;;;;8.53;7.70;;;;;;;4.34;64.11;93052.67;1750603;81;21176;-61
2021/04/06 12:03:01;;;;;;;8.95;6.85;;;;;;;4.31;64.29;93061.73;1749676;81;21395;-61
2021/04/06 12:05:30;;;;;;;7.47;6.78;;;;;;;4.31;64.69;93052.21;1749801;81;21412;-60
2021/04/06 12:07:58;;;;;;;8.23;7.42;;;;;;;4.30;64.73;93058.86;1749534;81;21202;-60
2021/04/06 12:10:27;;;;;;;8.80;7.35;;;;;;;4.33;64.84;93047.66;1749425;81;21188;-62
2021/04/06 12:12:55;;;;;;;10.90;8.18;;;;;;;4.32;64.91;93043.42;1749520;81;21802;-59
2021/04/06 12:15:26;;;;;;;15.25;9.03;;;;;;;4.26;64.93;93045.97;1724343;81;21375;-59
2021/04/06 12:17:55;;;;;;;14.93;9.20;;;;;;;4.23;65.75;93044.16;1749359;81;21930;-61
2021/04/06 12:20:23;;;;;;;14.60;10.25;;;;;;;4.22;66.21;93044.00;1749945;81;22576;-62
2021/04/06 12:22:52;;;;;;;94.67;46.50;;;;;;;4.25;66.46;93050.52;1749323;81;21469;-61
2021/04/06 12:25:21;;;;;;;48.58;30.50;;;;;;;4.36;67.00;93040.73;1749675;81;21151;-61